Time;durP1;ratioP1;P1;durP2;ratioP2;P2;SDS_P1;SDS_P2;PMS_P1;PMS_P2;Temp;Humidity;BMP_temperature;BMP_pressure;BME280_temperature;BME280_humidity;BME280_pressure;Samples;Min_cycle;Max_cycle;Signal;HPM_P1;HPM_P2
2023/10/15 00:00:24;;;;;;;2.25;0.95;;;17.00;68.40;;;;;;5015007;28;19948;-68
2023/10/15 00:02:51;;;;;;;1.85;1.00;;;17.10;68.80;;;;;;5015644;28;20032;-68
2023/10/15 00:05:20;;;;;;;3.45;1.80;;;17.10;69.50;;;;;;5032516;28;20498;-68
2023/10/15 00:07:48;;;;;;;1.38;1.02;;;17.20;70.00;;;;;;5015594;28;20116;-68
2023/10/15 00:10:22;;;;;;;3.40;1.30;;;17.30;70.00;;;;;;5014826;28;20108;-69
2023/10/15 00:12:51;;;;;;;1.05;0.73;;;17.30;69.80;;;;;;4999439;28;20517;-69
2023/10/15 00:20:49;;;;;;;2.78;1.73;;;17.50;69.50;;;;;;5017301;28;20044;-68
2023/10/15 00:23:15;;;;;;;2.10;1.27;;;17.60;69.20;;;;;;5015244;28;20482;-69
2023/10/15 00:28:29;;;;;;;2.20;1.23;;;17.60;68.50;;;;;;5018090;28;20517;-69
2023/10/15 00:30:55;;;;;;;2.38;1.40;;;17.70;68.50;;;;;;5032102;28;20034;-69
2023/10/15 00:33:21;;;;;;;3.53;2.20;;;17.70;68.40;;;;;;5032665;28;20041;-68
2023/10/15 00:35:50;;;;;;;1.15;0.60;;;17.70;68.60;;;;;;5032232;28;20041;-69
2023/10/15 00:38:16;;;;;;;1.85;1.10;;;17.80;68.40;;;;;;5033084;28;20042;-68
2023/10/15 00:40:45;;;;;;;1.63;1.23;;;17.80;68.20;;;;;;5014383;28;20124;-69
2023/10/15 00:43:15;;;;;;;1.50;1.02;;;17.80;68.10;;;;;;5015529;28;20040;-68
2023/10/15 00:45:44;;;;;;;1.00;0.68;;;17.80;68.30;;;;;;5031930;28;20124;-68
2023/10/15 00:48:22;;;;;;;0.88;0.63;;;17.90;68.30;;;;;;5015594;28;20045;-68
2023/10/15 00:50:51;;;;;;;1.33;0.90;;;17.80;68.20;;;;;;5031801;28;20116;-69
2023/10/15 00:53:25;;;;;;;2.00;0.80;;;17.90;68.10;;;;;;5031510;28;20049;-69
2023/10/15 00:56:05;;;;;;;3.35;1.67;;;17.90;68.00;;;;;;5014734;28;20100;-68
2023/10/15 01:01:33;;;;;;;1.10;0.70;;;17.90;68.10;;;;;;5017731;28;20121;-69
2023/10/15 01:04:00;;;;;;;1.17;0.63;;;17.90;68.10;;;;;;4999228;28;20402;-69
2023/10/15 01:06:49;;;;;;;1.60;1.13;;;17.90;68.10;;;;;;4997850;28;20079;-69
2023/10/15 01:12:18;;;;;;;1.20;0.70;;;18.00;67.80;;;;;;5016478;28;20072;-69
2023/10/15 01:14:45;;;;;;;1.58;0.95;;;18.00;67.90;;;;;;5017439;28;20044;-69
2023/10/15 01:17:11;;;;;;;0.80;0.47;;;18.00;67.90;;;;;;5031895;28;20029;-68
2023/10/15 01:19:37;;;;;;;;;;;18.00;67.90;;;;;;5015499;28;20038;-69
2023/10/15 01:22:09;;;;;;;1.52;0.85;;;18.00;67.80;;;;;;5013753;28;20012;-69
2023/10/15 01:24:38;;;;;;;2.13;1.33;;;18.00;67.70;;;;;;5014612;28;20383;-69
2023/10/15 01:27:10;;;;;;;4.28;1.80;;;18.00;67.80;;;;;;5014165;28;20033;-68
2023/10/15 01:29:58;;;;;;;1.00;0.57;;;18.00;68.00;;;;;;5015099;28;20083;-69
2023/10/15 01:32:31;;;;;;;1.70;1.20;;;18.00;68.10;;;;;;5014322;28;20038;-68
2023/10/15 01:34:59;;;;;;;3.15;1.88;;;18.00;68.10;;;;;;5032131;28;20037;-68
2023/10/15 01:37:25;;;;;;;1.05;0.70;;;18.00;68.20;;;;;;5014131;28;20120;-68
2023/10/15 01:42:41;;;;;;;0.75;0.55;;;18.00;68.00;;;;;;5016988;28;19921;-69
2023/10/15 01:48:05;;;;;;;0.77;0.70;;;18.00;68.70;;;;;;5014943;28;20107;-69
2023/10/15 01:50:49;;;;;;;2.25;1.02;;;18.00;69.10;;;;;;5031028;28;20088;-69
2023/10/15 01:53:16;;;;;;;0.77;0.40;;;18.10;69.30;;;;;;5000300;28;20051;-69
2023/10/15 02:01:21;;;;;;;2.38;0.90;;;18.10;69.20;;;;;;5016012;28;20410;-69
2023/10/15 02:03:48;;;;;;;1.98;0.63;;;18.20;69.50;;;;;;5015032;28;20493;-68
2023/10/15 02:06:18;;;;;;;1.17;0.85;;;18.30;69.60;;;;;;5032414;28;20108;-69
2023/10/15 02:08:46;;;;;;;2.03;1.00;;;18.40;69.40;;;;;;5035988;28;20059;-69
2023/10/15 02:11:16;;;;;;;2.00;1.23;;;18.40;69.50;;;;;;5034854;28;20229;-69
2023/10/15 02:13:45;;;;;;;1.70;1.23;;;18.40;69.80;;;;;;5018026;28;20083;-69
2023/10/15 02:16:16;;;;;;;2.72;0.82;;;18.50;69.00;;;;;;5034701;28;20041;-68
2023/10/15 02:18:51;;;;;;;1.85;1.63;;;18.50;69.60;;;;;;5035756;28;20045;-69
2023/10/15 02:21:17;;;;;;;2.75;1.40;;;18.50;69.10;;;;;;5017832;28;20044;-69
2023/10/15 02:23:53;;;;;;;1.73;1.23;;;18.60;69.90;;;;;;5035541;28;20092;-68
2023/10/15 02:29:21;;;;;;;1.00;0.77;;;18.60;70.00;;;;;;5020469;28;20048;-69
2023/10/15 02:31:47;;;;;;;3.65;1.75;;;18.60;70.30;;;;;;5034628;28;20120;-69
2023/10/15 02:37:03;;;;;;;2.50;1.55;;;18.60;70.60;;;;;;5020194;28;20041;-68
2023/10/15 02:39:36;;;;;;;2.47;1.27;;;18.60;70.80;;;;;;5035580;28;20045;-68
2023/10/15 02:42:03;;;;;;;1.20;0.70;;;18.50;70.90;;;;;;5033965;28;20498;-68
2023/10/15 02:44:32;;;;;;;3.65;0.75;;;18.50;71.10;;;;;;5035189;28;20034;-69
2023/10/15 02:47:42;;;;;;;0.80;0.65;;;18.50;72.10;;;;;;5017286;28;20386;-69
2023/10/15 02:50:15;;;;;;;0.90;0.75;;;18.40;72.40;;;;;;5034007;28;20063;-68
2023/10/15 02:52:45;;;;;;;0.25;0.20;;;18.30;72.50;;;;;;5018063;28;20029;-69
2023/10/15 02:55:14;;;;;;;0.77;0.60;;;18.20;72.70;;;;;;5000731;28;20075;-68
2023/10/15 02:57:42;;;;;;;0.50;0.50;;;18.10;72.60;;;;;;5000708;28;20570;-68
2023/10/15 03:00:13;;;;;;;1.70;0.98;;;18.10;73.10;;;;;;5016167;28;20068;-69
2023/10/15 03:05:30;;;;;;;6.53;1.38;;;17.90;73.30;;;;;;5033883;28;20138;-68
2023/10/15 03:08:00;;;;;;;0.50;0.45;;;17.80;75.00;;;;;;5034772;28;20033;-68
2023/10/15 03:13:32;;;;;;;1.70;1.23;;;17.60;77.00;;;;;;5034412;28;20045;-69
2023/10/15 03:16:07;;;;;;;0.20;0.20;;;17.50;78.50;;;;;;5016073;28;20044;-69
2023/10/15 03:18:34;;;;;;;0.65;0.43;;;17.30;79.20;;;;;;5017435;28;20055;-69
2023/10/15 03:21:21;;;;;;;5.03;1.02;;;17.30;79.30;;;;;;5033590;28;20045;-69
2023/10/15 03:23:52;;;;;;;2.03;1.05;;;17.30;79.20;;;;;;5034351;28;20058;-69
2023/10/15 03:26:18;;;;;;;1.20;0.82;;;17.20;78.90;;;;;;5015976;28;20040;-68
2023/10/15 03:29:06;;;;;;;0.80;0.60;;;17.20;79.10;;;;;;5033016;28;20037;-69
2023/10/15 03:31:36;;;;;;;3.15;1.02;;;17.20;79.40;;;;;;5033292;28;20490;-69
2023/10/15 03:39:16;;;;;;;0.25;0.20;;;17.00;79.40;;;;;;5034159;28;19925;-68
2023/10/15 03:41:49;;;;;;;1.65;0.85;;;17.00;79.60;;;;;;5033141;28;20128;-69
2023/10/15 03:44:23;;;;;;;0.47;0.20;;;17.10;79.40;;;;;;5017037;28;20030;-68
2023/10/15 03:46:50;;;;;;;0.13;0.13;;;17.10;79.40;;;;;;5033304;28;20542;-69
2023/10/15 03:49:26;;;;;;;1.25;0.77;;;17.00;79.10;;;;;;5016348;28;20033;-68
2023/10/15 03:51:53;;;;;;;0.10;0.10;;;17.00;79.10;;;;;;5016605;28;20038;-69
2023/10/15 03:54:22;;;;;;;0.20;0.15;;;17.00;78.80;;;;;;5016100;28;20443;-69
2023/10/15 03:56:51;;;;;;;0.20;0.20;;;16.90;78.60;;;;;;5015618;28;20032;-68
2023/10/15 04:02:39;;;;;;;0.15;0.10;;;16.80;78.20;;;;;;5032715;28;20052;-69
2023/10/15 04:05:11;;;;;;;0.10;0.10;;;16.70;78.20;;;;;;5033081;28;20083;-69
2023/10/15 04:07:53;;;;;;;0.30;0.10;;;16.60;77.60;;;;;;5016694;28;20030;-69
2023/10/15 04:10:23;;;;;;;0.17;0.17;;;16.50;78.30;;;;;;5016981;28;20115;-69
2023/10/15 04:13:08;;;;;;;0.20;0.10;;;16.50;77.70;;;;;;5033333;28;20026;-69
2023/10/15 04:15:35;;;;;;;0.10;0.10;;;16.40;77.90;;;;;;5032729;28;20033;-69
2023/10/15 04:18:01;;;;;;;0.10;0.10;;;16.40;77.90;;;;;;5015704;28;20478;-69
2023/10/15 04:20:35;;;;;;;0.10;0.10;;;16.30;77.80;;;;;;5014598;28;20038;-69
2023/10/15 04:23:01;;;;;;;0.10;0.10;;;16.30;77.40;;;;;;5033247;28;20068;-69
2023/10/15 04:25:36;;;;;;;0.55;0.50;;;16.30;76.60;;;;;;5014872;28;20029;-69
2023/10/15 04:28:14;;;;;;;0.20;0.20;;;16.20;77.00;;;;;;5033026;28;20037;-69
2023/10/15 04:30:40;;;;;;;0.20;0.20;;;16.10;76.30;;;;;;5031623;28;20060;-69
2023/10/15 04:35:56;;;;;;;0.10;0.10;;;16.00;76.30;;;;;;5017854;28;20040;-69
2023/10/15 04:38:27;;;;;;;0.32;0.20;;;16.00;76.40;;;;;;5015117;28;20029;-69
2023/10/15 04:46:26;;;;;;;0.30;0.20;;;15.80;77.30;;;;;;5032042;28;20039;-69
2023/10/15 04:48:53;;;;;;;0.10;0.10;;;15.80;77.40;;;;;;5015142;28;20045;-69
2023/10/15 04:51:19;;;;;;;0.25;0.25;;;15.70;77.30;;;;;;5014426;28;20036;-69
2023/10/15 04:53:48;;;;;;;0.10;0.10;;;15.70;77.40;;;;;;5032989;28;20042;-69
2023/10/15 04:56:14;;;;;;;0.50;0.50;;;15.70;77.20;;;;;;5031970;28;20471;-70
2023/10/15 04:58:41;;;;;;;0.35;0.25;;;15.60;77.00;;;;;;5031574;28;20045;-69
2023/10/15 05:01:08;;;;;;;;;;;15.60;77.10;;;;;;4998162;28;20124;-69
2023/10/15 05:03:39;;;;;;;0.88;0.75;;;15.60;76.80;;;;;;5014978;28;20012;-69
2023/10/15 05:06:10;;;;;;;0.10;0.10;;;15.60;76.80;;;;;;5014785;28;20038;-69
2023/10/15 05:08:39;;;;;;;0.20;0.20;;;15.60;76.80;;;;;;5032692;28;20048;-69
2023/10/15 05:11:07;;;;;;;0.30;0.17;;;15.50;77.00;;;;;;5014257;28;20034;-69
2023/10/15 05:13:33;;;;;;;6.55;0.82;;;15.40;77.10;;;;;;5014722;28;20113;-69
2023/10/15 05:15:59;;;;;;;0.10;0.10;;;15.40;77.20;;;;;;5031741;28;20033;-69
2023/10/15 05:18:29;;;;;;;0.10;0.10;;;15.40;77.20;;;;;;5032606;28;20037;-69
2023/10/15 05:20:55;;;;;;;0.17;0.17;;;15.40;77.10;;;;;;5014168;28;20083;-69
2023/10/15 05:23:22;;;;;;;;;;;15.30;77.30;;;;;;5015285;28;20482;-69
2023/10/15 05:25:53;;;;;;;0.30;0.20;;;15.30;77.00;;;;;;5014024;28;19913;-69
2023/10/15 05:28:19;;;;;;;0.15;0.08;;;15.30;77.10;;;;;;5032628;28;20041;-69
2023/10/15 05:30:45;;;;;;;;;;;15.30;77.00;;;;;;5014148;28;20034;-69
2023/10/15 05:33:12;;;;;;;0.60;0.20;;;15.30;76.40;;;;;;5014532;28;19921;-69
2023/10/15 05:35:40;;;;;;;0.17;0.17;;;15.20;76.80;;;;;;5013889;28;20068;-69
2023/10/15 05:38:09;;;;;;;0.20;0.20;;;15.20;76.40;;;;;;5014674;28;20273;-69
2023/10/15 05:40:37;;;;;;;0.10;0.10;;;15.20;76.90;;;;;;5031124;28;20080;-69
2023/10/15 05:43:04;;;;;;;0.10;0.10;;;15.20;76.90;;;;;;5018550;28;20037;-69
2023/10/15 05:45:31;;;;;;;0.28;0.25;;;15.30;76.10;;;;;;5035299;28;20059;-69
2023/10/15 05:47:56;;;;;;;;;;;15.20;76.10;;;;;;5036606;28;20029;-69
2023/10/15 05:50:23;;;;;;;0.17;0.17;;;15.10;76.70;;;;;;5034952;28;20430;-69
2023/10/15 05:52:50;;;;;;;0.30;0.30;;;15.20;76.60;;;;;;5018355;28;20084;-69
2023/10/15 05:55:19;;;;;;;0.10;0.10;;;15.10;76.60;;;;;;5035339;28;20041;-69
2023/10/15 05:57:46;;;;;;;0.10;0.10;;;15.00;76.40;;;;;;5035876;28;20056;-69
2023/10/15 06:00:26;;;;;;;0.45;0.20;;;15.00;76.30;;;;;;5034934;28;20205;-69
2023/10/15 06:02:56;;;;;;;0.10;0.10;;;14.90;76.00;;;;;;5035677;28;20117;-69
2023/10/15 06:05:22;;;;;;;0.10;0.10;;;14.90;75.80;;;;;;5018116;28;20064;-69
2023/10/15 06:07:49;;;;;;;0.20;0.13;;;14.80;75.30;;;;;;5018097;28;20030;-68
2023/10/15 06:10:16;;;;;;;0.52;0.35;;;14.80;75.70;;;;;;5017261;28;20080;-69
2023/10/15 06:12:43;;;;;;;5.32;1.40;;;14.80;75.40;;;;;;5017927;28;20044;-69
2023/10/15 06:15:11;;;;;;;0.50;0.28;;;14.70;76.00;;;;;;5034844;28;20079;-69
2023/10/15 06:17:37;;;;;;;0.10;0.10;;;14.70;76.20;;;;;;5035571;28;20064;-69
2023/10/15 06:20:13;;;;;;;0.20;0.20;;;14.80;76.20;;;;;;5035482;28;20048;-70
2023/10/15 06:23:03;;;;;;;0.20;0.20;;;14.80;75.90;;;;;;5035358;28;20029;-69
2023/10/15 06:25:30;;;;;;;0.38;0.32;;;14.70;75.80;;;;;;5033640;28;20407;-69
2023/10/15 06:27:56;;;;;;;0.10;0.10;;;14.70;75.80;;;;;;5017631;28;20430;-69
2023/10/15 06:30:22;;;;;;;;;;;14.70;76.00;;;;;;5034886;28;20037;-69
2023/10/15 06:32:49;;;;;;;0.47;0.40;;;14.70;75.80;;;;;;5035112;28;19964;-69
2023/10/15 06:35:20;;;;;;;0.47;0.28;;;14.70;76.00;;;;;;5033330;28;20553;-69
2023/10/15 06:38:05;;;;;;;0.10;0.10;;;14.60;75.70;;;;;;5018013;28;20034;-69
2023/10/15 06:40:31;;;;;;;0.20;0.20;;;14.70;75.80;;;;;;5033992;28;20061;-69
2023/10/15 06:43:01;;;;;;;0.43;0.43;;;14.70;75.70;;;;;;5033750;28;20051;-69
2023/10/15 06:45:28;;;;;;;2.08;0.17;;;14.70;75.40;;;;;;5016959;28;20038;-69
2023/10/15 06:47:55;;;;;;;0.47;0.32;;;14.80;75.60;;;;;;5035024;28;20040;-69
2023/10/15 06:50:22;;;;;;;0.63;0.52;;;14.80;75.50;;;;;;5033983;28;20057;-69
2023/10/15 06:52:49;;;;;;;0.32;0.30;;;14.70;75.30;;;;;;5018966;28;20025;-69
2023/10/15 06:55:19;;;;;;;0.35;0.35;;;14.70;75.50;;;;;;5017078;28;20033;-69
2023/10/15 06:57:46;;;;;;;0.65;0.43;;;14.80;75.50;;;;;;5017638;28;20098;-69
2023/10/15 07:00:21;;;;;;;0.93;0.65;;;14.80;75.30;;;;;;5032729;28;20470;-69
2023/10/15 07:02:49;;;;;;;0.70;0.28;;;14.80;75.10;;;;;;5018237;28;20040;-68
2023/10/15 07:05:20;;;;;;;0.28;0.28;;;14.80;75.20;;;;;;5016112;28;20364;-69
2023/10/15 07:07:47;;;;;;;0.35;0.30;;;14.80;75.20;;;;;;5034664;28;20092;-69
2023/10/15 07:10:17;;;;;;;0.25;0.17;;;14.80;75.00;;;;;;5045458;28;20029;-69
2023/10/15 07:12:45;;;;;;;0.20;0.20;;;14.80;74.70;;;;;;5028918;28;20037;-69
2023/10/15 07:15:14;;;;;;;1.50;1.15;;;14.80;74.60;;;;;;5015946;28;20039;-69
2023/10/15 07:17:41;;;;;;;0.32;0.20;;;14.90;74.40;;;;;;5016702;28;20104;-69
2023/10/15 07:20:14;;;;;;;1.85;1.10;;;14.90;74.10;;;;;;5015528;28;20491;-69
2023/10/15 07:22:43;;;;;;;1.05;0.68;;;15.00;73.90;;;;;;5017224;28;20426;-68
2023/10/15 07:25:10;;;;;;;0.28;0.28;;;14.90;73.60;;;;;;5016037;28;20041;-68
2023/10/15 07:27:41;;;;;;;0.88;0.73;;;15.00;73.20;;;;;;5034333;28;20076;-69
2023/10/15 07:30:12;;;;;;;2.58;0.85;;;15.00;73.40;;;;;;5016096;28;20045;-69
2023/10/15 07:32:40;;;;;;;0.77;0.52;;;15.00;73.20;;;;;;5015813;28;20037;-69
2023/10/15 07:35:26;;;;;;;0.25;0.25;;;15.00;73.10;;;;;;4999325;28;20441;-69
2023/10/15 07:37:52;;;;;;;0.95;0.60;;;15.00;73.00;;;;;;5034019;28;20075;-69
2023/10/15 07:40:22;;;;;;;0.32;0.32;;;15.00;72.90;;;;;;4999038;28;20036;-69
2023/10/15 07:42:52;;;;;;;0.98;0.57;;;14.90;72.80;;;;;;5016263;28;20076;-69
2023/10/15 07:45:20;;;;;;;0.20;0.20;;;15.00;72.70;;;;;;5015293;28;20048;-69
2023/10/15 07:47:47;;;;;;;0.30;0.30;;;15.00;72.70;;;;;;5016111;28;20033;-69
2023/10/15 07:50:18;;;;;;;0.85;0.70;;;15.10;72.10;;;;;;5015133;28;20029;-69
2023/10/15 07:52:48;;;;;;;0.40;0.30;;;15.00;72.50;;;;;;5015955;28;20430;-69
2023/10/15 07:55:14;;;;;;;0.30;0.30;;;14.90;72.00;;;;;;5015247;28;20035;-69
2023/10/15 07:57:40;;;;;;;0.45;0.30;;;14.90;72.30;;;;;;4998356;28;20033;-69
2023/10/15 08:00:10;;;;;;;0.30;0.30;;;14.90;72.30;;;;;;5018490;28;20569;-69
2023/10/15 08:02:36;;;;;;;0.15;0.15;;;15.00;72.30;;;;;;5033560;28;20048;-69
2023/10/15 08:05:02;;;;;;;0.45;0.30;;;15.00;72.20;;;;;;5032420;28;20044;-69
2023/10/15 08:07:28;;;;;;;0.30;0.20;;;15.00;72.30;;;;;;5032737;28;20041;-69
2023/10/15 08:09:54;;;;;;;0.40;0.30;;;15.00;72.20;;;;;;5015304;28;20483;-69
2023/10/15 08:12:21;;;;;;;0.20;0.20;;;15.00;71.70;;;;;;5032295;28;20045;-69
2023/10/15 08:14:48;;;;;;;1.05;0.55;;;14.90;72.20;;;;;;5032078;28;20041;-69
2023/10/15 08:17:14;;;;;;;0.10;0.10;;;15.00;71.90;;;;;;5015260;28;20061;-69
2023/10/15 08:19:40;;;;;;;0.10;0.10;;;15.00;71.10;;;;;;5015482;28;20156;-69
2023/10/15 08:22:07;;;;;;;0.30;0.20;;;15.10;71.50;;;;;;5032171;28;20128;-69
2023/10/15 08:24:33;;;;;;;;;;;15.00;71.40;;;;;;5015884;28;20402;-69
2023/10/15 08:26:59;;;;;;;0.63;0.32;;;15.10;70.80;;;;;;5014839;28;19912;-69
2023/10/15 08:29:25;;;;;;;0.40;0.40;;;15.10;71.30;;;;;;5015728;28;20040;-69
2023/10/15 08:31:51;;;;;;;0.38;0.38;;;15.00;71.30;;;;;;5032142;28;20044;-69
2023/10/15 08:34:17;;;;;;;0.80;0.60;;;15.00;71.40;;;;;;5033092;28;20114;-69
2023/10/15 08:36:43;;;;;;;1.30;0.95;;;15.00;71.60;;;;;;5014791;28;20043;-68
2023/10/15 08:39:09;;;;;;;;;;;14.90;71.90;;;;;;5033751;28;20080;-69
2023/10/15 08:41:38;;;;;;;0.98;0.90;;;14.80;71.80;;;;;;5031955;28;20335;-69
2023/10/15 08:44:18;;;;;;;0.10;0.10;;;14.70;71.10;;;;;;5015170;28;20435;-69
2023/10/15 08:46:49;;;;;;;0.35;0.35;;;14.60;71.30;;;;;;5031218;28;20060;-69
2023/10/15 08:49:16;;;;;;;0.10;0.10;;;14.70;71.40;;;;;;5033266;28;20445;-69
2023/10/15 08:51:44;;;;;;;0.10;0.10;;;14.60;71.60;;;;;;5013691;28;20531;-69
2023/10/15 08:54:12;;;;;;;1.52;0.68;;;14.60;71.80;;;;;;5015101;28;20447;-69
2023/10/15 08:56:39;;;;;;;0.38;0.20;;;14.70;72.10;;;;;;5014629;28;20095;-69
2023/10/15 08:59:09;;;;;;;0.25;0.25;;;14.70;71.50;;;;;;5015294;28;20057;-69
2023/10/15 09:01:37;;;;;;;0.47;0.40;;;14.60;71.90;;;;;;5031776;28;20079;-68
2023/10/15 09:04:04;;;;;;;0.80;0.20;;;14.70;72.00;;;;;;5014969;28;20399;-69
2023/10/15 09:06:31;;;;;;;1.08;0.82;;;14.60;71.30;;;;;;5031713;28;20457;-69
2023/10/15 09:08:57;;;;;;;1.23;0.50;;;14.50;71.20;;;;;;5015092;28;20052;-69
2023/10/15 09:11:23;;;;;;;0.30;0.30;;;14.50;71.00;;;;;;5021347;28;20512;-69
2023/10/15 09:13:51;;;;;;;0.40;0.40;;;14.50;71.10;;;;;;5036211;28;20161;-69
2023/10/15 09:16:18;;;;;;;0.20;0.20;;;14.60;71.00;;;;;;5019449;28;20359;-69
2023/10/15 09:18:45;;;;;;;0.28;0.25;;;14.70;71.10;;;;;;5017981;28;20036;-68
2023/10/15 09:21:23;;;;;;;0.75;0.35;;;14.60;71.00;;;;;;5051026;28;20489;-69
2023/10/15 09:23:50;;;;;;;1.00;0.73;;;14.60;71.00;;;;;;5052382;28;20053;-69
2023/10/15 09:26:17;;;;;;;0.82;0.60;;;14.60;71.00;;;;;;5033772;28;20029;-69
2023/10/15 09:28:45;;;;;;;0.20;0.20;;;14.50;71.10;;;;;;5023284;28;20052;-69
2023/10/15 09:31:11;;;;;;;0.10;0.10;;;14.50;71.00;;;;;;5030058;28;20045;-68
2023/10/15 09:33:40;;;;;;;0.47;0.30;;;14.40;70.50;;;;;;5014018;28;20393;-69
2023/10/15 09:36:06;;;;;;;0.20;0.20;;;14.40;70.70;;;;;;5031433;28;20029;-69
2023/10/15 09:38:34;;;;;;;0.10;0.10;;;14.30;70.80;;;;;;5014535;28;20121;-68
2023/10/15 09:41:19;;;;;;;0.50;0.25;;;14.30;70.50;;;;;;5013083;28;20113;-69
2023/10/15 09:43:46;;;;;;;0.65;0.65;;;14.30;70.60;;;;;;5014353;28;20065;-69
2023/10/15 09:46:13;;;;;;;0.70;0.47;;;14.20;69.90;;;;;;5031551;28;20040;-69
2023/10/15 09:48:39;;;;;;;1.65;1.15;;;14.30;70.20;;;;;;5032414;28;20034;-69
2023/10/15 09:51:07;;;;;;;0.88;0.50;;;14.20;70.10;;;;;;5013539;28;20048;-69
2023/10/15 09:53:34;;;;;;;0.38;0.20;;;14.20;69.70;;;;;;5032046;28;20053;-69
2023/10/15 09:56:07;;;;;;;1.50;0.77;;;14.10;69.80;;;;;;5031473;28;20048;-69
2023/10/15 09:58:34;;;;;;;1.05;0.45;;;14.10;70.00;;;;;;5015489;28;20472;-69
2023/10/15 10:01:25;;;;;;;0.55;0.20;;;14.10;69.90;;;;;;5013274;28;20466;-69
2023/10/15 10:04:52;;;;;;;2.30;0.82;;;14.10;70.00;;;;;;5032009;28;20037;-69
2023/10/15 10:07:47;;;;;;;0.40;0.38;;;14.00;69.60;;;;;;5013852;28;20044;-69
2023/10/15 10:10:54;;;;;;;0.20;0.20;;;14.00;69.70;;;;;;5014169;28;20402;-69
2023/10/15 10:13:57;;;;;;;0.85;0.43;;;14.00;69.50;;;;;;5030765;28;20115;-69
2023/10/15 10:16:27;;;;;;;0.80;0.32;;;14.00;69.30;;;;;;5013594;28;20115;-69
2023/10/15 10:18:53;;;;;;;0.30;0.20;;;14.00;69.20;;;;;;5014110;28;20029;-69
2023/10/15 10:21:20;;;;;;;0.82;0.30;;;14.00;69.30;;;;;;5013226;28;20041;-69
2023/10/15 10:23:50;;;;;;;;;;;14.10;69.60;;;;;;5014706;28;20045;-69
2023/10/15 10:26:19;;;;;;;0.38;0.38;;;14.10;69.20;;;;;;5013604;28;19970;-69
2023/10/15 10:28:46;;;;;;;0.85;0.30;;;14.10;69.40;;;;;;5017395;28;20041;-69
2023/10/15 10:31:14;;;;;;;0.10;0.10;;;14.10;69.50;;;;;;4998556;28;20056;-69
2023/10/15 10:34:03;;;;;;;0.65;0.40;;;14.10;69.60;;;;;;5012105;28;20033;-69
2023/10/15 10:36:30;;;;;;;1.00;0.65;;;14.00;69.20;;;;;;5012699;28;20038;-69
2023/10/15 10:39:18;;;;;;;0.73;0.50;;;14.00;69.10;;;;;;5006641;28;20040;-69
2023/10/15 10:42:04;;;;;;;;;;;14.00;69.40;;;;;;5033457;28;20490;-69
2023/10/15 10:44:31;;;;;;;2.22;1.20;;;14.00;69.30;;;;;;5035314;28;19925;-69
2023/10/15 10:46:58;;;;;;;0.32;0.32;;;14.00;69.40;;;;;;5034543;28;20437;-69
2023/10/15 10:49:40;;;;;;;0.82;0.68;;;14.00;69.30;;;;;;5035489;28;20038;-69
2023/10/15 10:52:44;;;;;;;1.35;0.60;;;14.00;69.20;;;;;;5016077;28;20044;-69
2023/10/15 10:56:01;;;;;;;0.25;0.25;;;14.00;69.10;;;;;;5016389;28;20422;-69
2023/10/15 10:58:29;;;;;;;1.23;0.65;;;14.00;69.30;;;;;;5033603;28;20502;-68
2023/10/15 11:00:57;;;;;;;1.13;0.80;;;14.00;69.30;;;;;;5032488;28;20033;-69
2023/10/15 11:03:23;;;;;;;0.10;0.10;;;14.00;69.40;;;;;;5033544;28;20042;-68
2023/10/15 11:05:49;;;;;;;3.40;2.45;;;14.00;69.00;;;;;;5033960;28;20037;-69
2023/10/15 11:08:34;;;;;;;;;;;13.90;69.50;;;;;;5034140;28;20033;-68
2023/10/15 11:11:00;;;;;;;1.65;1.05;;;13.90;69.40;;;;;;5015687;28;19983;-68
2023/10/15 11:13:28;;;;;;;0.90;0.65;;;13.90;70.60;;;;;;5034556;28;20116;-68
2023/10/15 11:15:55;;;;;;;2.80;1.00;;;13.90;69.30;;;;;;5032629;28;20029;-68
2023/10/15 11:18:40;;;;;;;0.38;0.30;;;13.90;69.80;;;;;;5033290;28;20041;-69
2023/10/15 11:21:07;;;;;;;0.98;0.50;;;13.90;69.80;;;;;;5015659;28;20060;-69
2023/10/15 11:23:33;;;;;;;0.95;0.43;;;13.90;69.70;;;;;;5034132;28;20064;-69
2023/10/15 11:26:00;;;;;;;0.40;0.40;;;13.90;70.60;;;;;;5033562;28;20446;-69
2023/10/15 11:28:26;;;;;;;1.80;0.47;;;13.80;69.10;;;;;;5016818;28;20037;-68
2023/10/15 11:30:53;;;;;;;0.77;0.47;;;13.90;70.00;;;;;;5015471;28;20087;-68
2023/10/15 11:33:19;;;;;;;0.43;0.30;;;13.90;69.90;;;;;;5015976;28;20065;-68
2023/10/15 11:36:06;;;;;;;2.03;0.95;;;13.90;70.00;;;;;;5015360;28;20030;-69
2023/10/15 11:38:33;;;;;;;1.30;0.60;;;14.00;69.80;;;;;;5015723;28;20045;-69
2023/10/15 11:41:02;;;;;;;0.57;0.40;;;13.90;69.80;;;;;;5032919;28;20033;-69
2023/10/15 11:43:32;;;;;;;2.22;0.38;;;13.90;69.50;;;;;;4999945;28;20132;-68
2023/10/15 11:46:07;;;;;;;0.15;0.15;;;13.90;69.80;;;;;;5015695;28;20030;-68
2023/10/15 11:48:34;;;;;;;0.73;0.35;;;13.90;69.90;;;;;;5034062;28;20034;-69
2023/10/15 11:51:05;;;;;;;0.98;0.75;;;14.00;69.80;;;;;;5032876;28;20064;-68
2023/10/15 11:53:33;;;;;;;0.55;0.50;;;14.00;69.90;;;;;;5033755;28;20485;-68
2023/10/15 11:56:02;;;;;;;0.77;0.20;;;14.00;69.90;;;;;;5031874;28;20517;-68
2023/10/15 12:01:15;;;;;;;0.68;0.52;;;14.00;68.90;;;;;;5032543;28;20418;-68
2023/10/15 12:03:43;;;;;;;0.50;0.32;;;14.00;69.70;;;;;;5015409;28;20048;-68
2023/10/15 12:06:09;;;;;;;1.00;0.32;;;14.00;69.30;;;;;;5031589;28;20045;-68
2023/10/15 12:08:35;;;;;;;0.32;0.20;;;14.10;69.50;;;;;;4999533;28;20069;-69
2023/10/15 12:11:01;;;;;;;0.93;0.50;;;14.10;69.60;;;;;;5014901;28;20406;-69
2023/10/15 12:13:27;;;;;;;0.60;0.50;;;14.10;69.50;;;;;;5033513;28;20046;-68
2023/10/15 12:15:53;;;;;;;1.58;1.48;;;14.00;69.20;;;;;;5015006;28;20084;-68
2023/10/15 12:18:19;;;;;;;0.77;0.45;;;14.00;69.20;;;;;;5033516;28;20037;-69
2023/10/15 12:20:45;;;;;;;0.30;0.20;;;14.00;69.20;;;;;;5035072;28;20419;-69
2023/10/15 12:23:11;;;;;;;1.30;1.13;;;14.00;69.30;;;;;;5033168;28;20115;-68
2023/10/15 12:25:38;;;;;;;2.67;1.00;;;14.00;69.30;;;;;;5032132;28;20049;-69
2023/10/15 12:28:05;;;;;;;1.55;1.00;;;14.00;69.50;;;;;;5016513;28;20049;-69
2023/10/15 12:30:32;;;;;;;2.95;1.30;;;14.00;69.00;;;;;;5030860;28;20521;-69
2023/10/15 12:32:58;;;;;;;0.60;0.60;;;14.10;69.60;;;;;;5032894;28;20508;-69
2023/10/15 12:35:27;;;;;;;;;;;14.00;69.30;;;;;;5015537;28;20560;-68
2023/10/15 12:38:05;;;;;;;0.55;0.30;;;14.00;69.40;;;;;;5033205;28;20277;-68
2023/10/15 12:40:32;;;;;;;1.23;0.52;;;14.10;69.50;;;;;;5009882;28;20081;-69
2023/10/15 12:43:00;;;;;;;2.30;0.75;;;14.10;69.50;;;;;;4995455;28;20045;-69
2023/10/15 12:45:27;;;;;;;1.65;0.50;;;14.00;69.00;;;;;;4994558;28;20029;-68
2023/10/15 12:47:53;;;;;;;0.32;0.25;;;14.10;69.40;;;;;;4995222;28;20029;-69
2023/10/15 12:50:19;;;;;;;0.65;0.30;;;14.10;69.60;;;;;;5011566;28;20101;-68
2023/10/15 12:52:47;;;;;;;0.60;0.50;;;14.10;69.50;;;;;;4995433;28;20326;-68
2023/10/15 12:58:00;;;;;;;0.73;0.68;;;14.10;69.50;;;;;;4998709;28;20499;-69
2023/10/15 13:00:27;;;;;;;0.40;0.28;;;14.10;69.80;;;;;;5012038;28;20049;-68
2023/10/15 13:02:54;;;;;;;1.60;0.40;;;14.10;69.90;;;;;;5011313;28;20478;-68
2023/10/15 13:05:22;;;;;;;1.00;0.65;;;14.00;69.20;;;;;;5023599;28;20430;-68
2023/10/15 13:07:50;;;;;;;0.73;0.40;;;14.00;69.80;;;;;;5015006;28;20026;-68
2023/10/15 13:10:18;;;;;;;5.53;1.80;;;14.00;69.80;;;;;;5030417;28;20080;-69
2023/10/15 13:13:04;;;;;;;0.20;0.20;;;14.00;70.00;;;;;;5032458;28;20049;-69
2023/10/15 13:15:30;;;;;;;0.47;0.20;;;14.00;70.00;;;;;;5031582;28;20040;-69
2023/10/15 13:17:57;;;;;;;0.63;0.43;;;14.00;70.10;;;;;;5032826;28;20030;-69
2023/10/15 13:20:23;;;;;;;0.68;0.63;;;14.00;70.20;;;;;;5031574;28;20129;-68
2023/10/15 13:22:50;;;;;;;5.57;0.82;;;13.90;70.10;;;;;;5014526;28;20029;-69
2023/10/15 13:25:17;;;;;;;0.57;0.52;;;13.90;69.30;;;;;;5014290;28;20037;-69
2023/10/15 13:27:44;;;;;;;0.10;0.10;;;13.80;69.80;;;;;;5032220;28;20057;-68
2023/10/15 13:30:17;;;;;;;0.68;0.38;;;13.80;69.50;;;;;;5031093;28;20545;-69
2023/10/15 13:33:03;;;;;;;0.50;0.40;;;13.80;70.00;;;;;;5032145;28;20425;-68
2023/10/15 13:35:30;;;;;;;0.88;0.85;;;13.80;70.30;;;;;;5032041;28;20475;-68
2023/10/15 13:37:58;;;;;;;0.47;0.40;;;13.60;70.10;;;;;;5014570;28;20041;-69
2023/10/15 13:40:24;;;;;;;0.40;0.28;;;13.50;70.10;;;;;;5031399;28;20052;-69
2023/10/15 13:42:50;;;;;;;0.22;0.22;;;13.40;70.20;;;;;;5032342;28;20026;-69
2023/10/15 13:45:17;;;;;;;0.90;0.50;;;13.30;70.40;;;;;;5031135;28;20099;-69
2023/10/15 13:47:44;;;;;;;0.22;0.22;;;13.10;70.50;;;;;;5031914;28;20295;-69
2023/10/15 13:50:12;;;;;;;0.40;0.40;;;13.20;70.80;;;;;;4997219;28;20030;-69
2023/10/15 13:52:42;;;;;;;0.77;0.50;;;13.10;71.00;;;;;;5014932;28;20033;-68
2023/10/15 13:55:08;;;;;;;0.60;0.28;;;13.10;70.80;;;;;;5014439;28;20076;-69
2023/10/15 14:00:21;;;;;;;0.73;0.68;;;13.00;70.90;;;;;;5016499;28;20083;-68
2023/10/15 14:02:49;;;;;;;0.10;0.10;;;12.90;71.00;;;;;;5015960;28;20021;-69
2023/10/15 14:05:16;;;;;;;0.35;0.30;;;12.90;71.00;;;;;;5000960;28;20029;-69
2023/10/15 14:07:45;;;;;;;0.20;0.20;;;12.90;71.50;;;;;;5001779;28;20062;-69